Coronation, Canada
Current Conditions -  °F | °C
As of 5:00 PM on Friday 19 Dec 2014 (Local Time) from CYLL Reporting Station
Overcast Overcast  
Wind Chill: -4°   Ceiling: 18000
Heat Index: 10°   Visibility: 8mi
Dew Point:   Wind: 12mph
Humidity: 92%   Direction: 120°ESE
Pressure: 29.74"   Gusts: NA
Location:  52.09°N, 111.45°W
Report Text: CYLL 200000Z 12010KT 8SM BKN180 OVC240 M12/M13 A2974 RMK AC5CI3 SLP125
Loading
Personal Weather Stations






























Interactive Weather Map New forecast layout! Learn more

10-Day Weather Forecast

Advertisements
Track Severe Weather on mobile